SIMBA11 RJSM-RJSM
Flight info
| Callsign | SIMBA11 |
|---|---|
| Flight time | N/A |
| Altitude | 45000 |
| Route | BISAM GABII |
| Aircraft | F22/M-SGR/C |
Departure
| Time | 2026-05-08 01:40 |
|---|---|
| Airport | Misawa Airport / Misawa Air Base (RJSM) |
Arrival
| Time | N/A |
|---|---|
| Airport | Misawa Airport / Misawa Air Base (RJSM) |
| Time | Latitude | Longitude | Altitude | Speed | Heading |
|---|---|---|---|---|---|
| 2026-05-08 01:34 | 40.70482 | 141.38436 | 101 ft | 0 kts | 185° |
| 2026-05-08 01:38 | 40.70478 | 141.38436 | 101 ft | 3 kts | 185° |
| 2026-05-08 01:39 | 40.70427 | 141.38451 | 101 ft | 15 kts | 115° |
| 2026-05-08 01:39 | 40.70420 | 141.38605 | 100 ft | 18 kts | 100° |
| 2026-05-08 01:39 | 40.70314 | 141.38623 | 100 ft | 18 kts | 186° |
| 2026-05-08 01:39 | 40.70280 | 141.38618 | 100 ft | 0 kts | 186° |
| 2026-05-08 01:40 | 40.70251 | 141.38613 | 99 ft | 22 kts | 191° |
| 2026-05-08 01:40 | 40.70213 | 141.38419 | 100 ft | 30 kts | 275° |
| 2026-05-08 01:40 | 40.70330 | 141.36760 | 392 ft | 306 kts | 275° |
| 2026-05-08 01:40 | 40.70560 | 141.33714 | 1399 ft | 356 kts | 275° |
| 2026-05-08 01:41 | 40.70842 | 141.30395 | 2726 ft | 356 kts | 276° |
| 2026-05-08 01:41 | 40.71250 | 141.26607 | 8116 ft | 487 kts | 281° |
| 2026-05-08 01:41 | 40.72071 | 141.22503 | 19106 ft | 475 kts | 279° |
| 2026-05-08 01:41 | 40.72967 | 141.18316 | 30719 ft | 466 kts | 278° |
| 2026-05-08 01:42 | 40.73890 | 141.14352 | 41887 ft | 428 kts | 279° |
| 2026-05-08 01:42 | 40.74812 | 141.10440 | 46384 ft | 450 kts | 280° |
| 2026-05-08 01:42 | 40.75738 | 141.06567 | 46369 ft | 436 kts | 281° |
| 2026-05-08 01:42 | 40.76677 | 141.02814 | 46201 ft | 444 kts | 281° |
| 2026-05-08 01:43 | 40.77694 | 140.98843 | 46175 ft | 471 kts | 287° |
| 2026-05-08 01:43 | 40.79677 | 140.95246 | 46183 ft | 505 kts | 316° |
| 2026-05-08 01:43 | 40.82902 | 140.93195 | 46475 ft | 537 kts | 342° |
| 2026-05-08 01:43 | 40.86686 | 140.92901 | 46594 ft | 564 kts | 358° |
| 2026-05-08 01:44 | 40.90583 | 140.94102 | 46625 ft | 587 kts | 17° |
| 2026-05-08 01:44 | 40.94367 | 140.96352 | 46561 ft | 605 kts | 21° |
| 2026-05-08 01:44 | 40.98193 | 140.98925 | 46498 ft | 621 kts | 24° |
| 2026-05-08 01:44 | 41.01901 | 141.01924 | 46473 ft | 638 kts | 31° |
| 2026-05-08 01:45 | 41.05567 | 141.05347 | 46444 ft | 645 kts | 33° |
| 2026-05-08 01:45 | 41.12760 | 141.12436 | 46400 ft | 647 kts | 33° |
| 2026-05-08 01:46 | 41.19367 | 141.20500 | 46426 ft | 651 kts | 50° |
| 2026-05-08 01:46 | 41.24873 | 141.30168 | 46422 ft | 655 kts | 54° |
| 2026-05-08 01:47 | 41.29966 | 141.40124 | 46394 ft | 650 kts | 56° |
| 2026-05-08 01:47 | 41.34983 | 141.50147 | 46394 ft | 654 kts | 56° |
| 2026-05-08 01:48 | 41.42549 | 141.65345 | 46389 ft | 654 kts | 56° |
| 2026-05-08 01:48 | 41.47554 | 141.75422 | 46385 ft | 654 kts | 56° |
| 2026-05-08 01:49 | 41.52568 | 141.85526 | 46382 ft | 654 kts | 56° |
| 2026-05-08 01:49 | 41.57603 | 141.95686 | 46379 ft | 654 kts | 56° |
| 2026-05-08 01:50 | 41.62599 | 142.05778 | 46385 ft | 653 kts | 56° |
| 2026-05-08 01:50 | 41.67621 | 142.15932 | 46382 ft | 653 kts | 56° |
| 2026-05-08 01:51 | 41.72620 | 142.26046 | 46384 ft | 653 kts | 56° |
| 2026-05-08 01:51 | 41.77644 | 142.36220 | 46384 ft | 653 kts | 56° |
| 2026-05-08 01:52 | 41.82629 | 142.46320 | 46388 ft | 653 kts | 56° |
| 2026-05-08 01:52 | 41.87648 | 142.56495 | 46391 ft | 653 kts | 56° |
| 2026-05-08 01:53 | 41.92668 | 142.66677 | 46396 ft | 653 kts | 56° |
| 2026-05-08 01:53 | 41.97664 | 142.76811 | 46390 ft | 653 kts | 56° |
| 2026-05-08 01:54 | 42.02700 | 142.87033 | 46389 ft | 653 kts | 56° |
| 2026-05-08 01:54 | 42.07700 | 142.97184 | 46391 ft | 653 kts | 56° |
| 2026-05-08 01:55 | 42.12736 | 143.07414 | 46380 ft | 647 kts | 56° |
| 2026-05-08 01:55 | 42.17699 | 143.17512 | 46407 ft | 650 kts | 56° |
| 2026-05-08 01:56 | 42.22689 | 143.27660 | 46401 ft | 649 kts | 56° |
| 2026-05-08 01:56 | 42.27716 | 143.37884 | 46411 ft | 653 kts | 56° |
| 2026-05-08 01:57 | 42.32725 | 143.48074 | 46412 ft | 654 kts | 56° |
| 2026-05-08 01:57 | 42.37769 | 143.58349 | 46409 ft | 654 kts | 56° |
| 2026-05-08 01:58 | 42.42816 | 143.68649 | 46408 ft | 654 kts | 56° |
| 2026-05-08 01:58 | 42.47826 | 143.78891 | 46409 ft | 654 kts | 56° |
| 2026-05-08 01:59 | 42.52819 | 143.89120 | 46406 ft | 654 kts | 56° |
| 2026-05-08 01:59 | 42.57836 | 143.99415 | 46403 ft | 654 kts | 56° |
| 2026-05-08 02:00 | 42.62856 | 144.09734 | 46401 ft | 654 kts | 56° |
| 2026-05-08 02:00 | 42.67860 | 144.20034 | 46404 ft | 655 kts | 56° |
| 2026-05-08 02:01 | 42.72891 | 144.30409 | 46405 ft | 655 kts | 56° |
| 2026-05-08 02:01 | 42.77903 | 144.40760 | 46400 ft | 654 kts | 56° |
| 2026-05-08 02:02 | 42.82886 | 144.51073 | 46405 ft | 654 kts | 56° |
| 2026-05-08 02:02 | 42.87885 | 144.61449 | 46402 ft | 654 kts | 56° |
| 2026-05-08 02:03 | 42.92763 | 144.71971 | 46380 ft | 653 kts | 69° |
| 2026-05-08 02:03 | 42.93976 | 144.77807 | 46510 ft | 646 kts | 84° |
| 2026-05-08 02:03 | 42.94526 | 144.83910 | 46488 ft | 646 kts | 88° |
| 2026-05-08 02:04 | 42.94417 | 144.89968 | 46491 ft | 632 kts | 106° |
| 2026-05-08 02:04 | 42.93425 | 144.95785 | 46497 ft | 629 kts | 111° |
| 2026-05-08 02:04 | 42.90903 | 145.07226 | 46425 ft | 628 kts | 114° |
| 2026-05-08 02:05 | 42.88241 | 145.18539 | 46402 ft | 628 kts | 114° |
| 2026-05-08 02:05 | 42.85535 | 145.29881 | 46394 ft | 628 kts | 114° |
| 2026-05-08 02:06 | 42.82843 | 145.41112 | 46394 ft | 628 kts | 114° |
| 2026-05-08 02:06 | 42.80121 | 145.52435 | 46392 ft | 628 kts | 114° |
| 2026-05-08 02:07 | 42.77407 | 145.63687 | 46396 ft | 628 kts | 114° |
| 2026-05-08 02:07 | 42.74674 | 145.74984 | 46396 ft | 627 kts | 114° |
| 2026-05-08 02:08 | 42.71956 | 145.86188 | 46387 ft | 628 kts | 114° |
| 2026-05-08 02:08 | 42.69206 | 145.97489 | 46390 ft | 628 kts | 114° |
| 2026-05-08 02:09 | 42.66447 | 146.08771 | 46395 ft | 628 kts | 114° |
| 2026-05-08 02:09 | 42.63697 | 146.19973 | 46393 ft | 628 kts | 114° |
| 2026-05-08 02:10 | 42.60916 | 146.31244 | 46391 ft | 629 kts | 114° |
| 2026-05-08 02:10 | 42.58122 | 146.42508 | 46390 ft | 629 kts | 114° |
| 2026-05-08 02:11 | 42.55330 | 146.53703 | 46387 ft | 629 kts | 114° |
| 2026-05-08 02:11 | 42.52502 | 146.64977 | 46384 ft | 629 kts | 114° |
| 2026-05-08 02:12 | 42.49686 | 146.76139 | 46384 ft | 629 kts | 114° |
| 2026-05-08 02:12 | 42.46836 | 146.87374 | 46385 ft | 629 kts | 114° |
| 2026-05-08 02:13 | 42.43594 | 146.98186 | 46403 ft | 603 kts | 136° |
| 2026-05-08 02:13 | 42.40633 | 147.01988 | 46530 ft | 574 kts | 160° |
| 2026-05-08 02:13 | 42.37012 | 147.03785 | 46617 ft | 542 kts | 180° |
| 2026-05-08 02:14 | 42.29616 | 147.04386 | 46483 ft | 533 kts | 187° |
| 2026-05-08 02:14 | 42.22207 | 147.04315 | 46410 ft | 532 kts | 188° |
| 2026-05-08 02:15 | 42.14825 | 147.04117 | 46383 ft | 532 kts | 189° |
| 2026-05-08 02:15 | 42.07412 | 147.03882 | 46381 ft | 531 kts | 189° |
| 2026-05-08 02:16 | 42.00041 | 147.03634 | 46375 ft | 531 kts | 189° |
| 2026-05-08 02:16 | 41.92645 | 147.03375 | 46385 ft | 532 kts | 189° |
| 2026-05-08 02:17 | 41.85242 | 147.03105 | 46381 ft | 531 kts | 189° |
| 2026-05-08 02:17 | 41.77837 | 147.02826 | 46383 ft | 532 kts | 189° |
| 2026-05-08 02:18 | 41.70474 | 147.02539 | 46386 ft | 531 kts | 189° |
| 2026-05-08 02:18 | 41.63061 | 147.02242 | 46381 ft | 532 kts | 189° |
| 2026-05-08 02:19 | 41.55695 | 147.01940 | 46388 ft | 532 kts | 189° |
| 2026-05-08 02:19 | 41.48270 | 147.01625 | 46380 ft | 531 kts | 190° |
| 2026-05-08 02:20 | 41.44802 | 147.00654 | 46441 ft | 503 kts | 214° |
| 2026-05-08 02:20 | 41.42161 | 146.97788 | 46579 ft | 489 kts | 237° |
| 2026-05-08 02:20 | 41.38853 | 146.89851 | 46504 ft | 490 kts | 245° |
| 2026-05-08 02:21 | 41.36095 | 146.81582 | 46422 ft | 491 kts | 247° |
| 2026-05-08 02:21 | 41.33429 | 146.73206 | 46404 ft | 491 kts | 247° |
| 2026-05-08 02:22 | 41.30799 | 146.64847 | 46397 ft | 491 kts | 247° |
| 2026-05-08 02:22 | 41.28609 | 146.57875 | 46393 ft | 490 kts | 247° |
| 2026-05-08 02:23 | 41.25980 | 146.49502 | 46400 ft | 490 kts | 247° |
| 2026-05-08 02:23 | 41.23361 | 146.41168 | 46401 ft | 490 kts | 247° |
| 2026-05-08 02:24 | 41.20728 | 146.32795 | 46400 ft | 490 kts | 247° |
| 2026-05-08 02:24 | 41.18106 | 146.24465 | 46402 ft | 490 kts | 247° |
| 2026-05-08 02:25 | 41.15485 | 146.16141 | 46401 ft | 489 kts | 247° |
| 2026-05-08 02:25 | 41.12893 | 146.07755 | 46387 ft | 490 kts | 252° |
| 2026-05-08 02:26 | 41.11626 | 145.98906 | 46419 ft | 493 kts | 260° |
| 2026-05-08 02:26 | 41.10882 | 145.89871 | 46405 ft | 493 kts | 262° |
| 2026-05-08 02:27 | 41.10246 | 145.80788 | 46406 ft | 493 kts | 262° |
| 2026-05-08 02:27 | 41.09643 | 145.71773 | 46400 ft | 493 kts | 262° |
| 2026-05-08 02:28 | 41.09043 | 145.62698 | 46404 ft | 493 kts | 262° |
| 2026-05-08 02:28 | 41.08451 | 145.53673 | 46401 ft | 493 kts | 262° |
| 2026-05-08 02:29 | 41.07856 | 145.44589 | 46407 ft | 493 kts | 262° |
| 2026-05-08 02:29 | 41.07268 | 145.35585 | 46400 ft | 493 kts | 262° |
| 2026-05-08 02:30 | 41.06678 | 145.26509 | 46397 ft | 493 kts | 262° |
| 2026-05-08 02:30 | 41.06093 | 145.17491 | 46398 ft | 493 kts | 262° |
| 2026-05-08 02:31 | 41.05506 | 145.08400 | 46393 ft | 493 kts | 262° |
| 2026-05-08 02:31 | 41.04927 | 144.99389 | 46394 ft | 493 kts | 262° |
| 2026-05-08 02:32 | 41.04351 | 144.90344 | 46394 ft | 494 kts | 262° |
| 2026-05-08 02:32 | 41.03772 | 144.81265 | 46393 ft | 494 kts | 262° |
| 2026-05-08 02:33 | 41.03198 | 144.72224 | 46394 ft | 494 kts | 262° |
| 2026-05-08 02:33 | 41.02621 | 144.63119 | 46397 ft | 494 kts | 262° |
| 2026-05-08 02:34 | 41.02048 | 144.54084 | 46394 ft | 495 kts | 262° |
| 2026-05-08 02:34 | 41.01471 | 144.45006 | 46396 ft | 495 kts | 262° |
| 2026-05-08 02:35 | 41.00890 | 144.35909 | 46400 ft | 494 kts | 262° |
| 2026-05-08 02:35 | 41.00311 | 144.26874 | 46396 ft | 495 kts | 261° |
| 2026-05-08 02:36 | 40.99724 | 144.17771 | 46397 ft | 494 kts | 261° |
| 2026-05-08 02:36 | 40.99134 | 144.08690 | 46399 ft | 494 kts | 261° |
| 2026-05-08 02:37 | 40.98542 | 143.99658 | 46400 ft | 494 kts | 261° |
| 2026-05-08 02:37 | 40.97942 | 143.90574 | 46399 ft | 494 kts | 261° |
| 2026-05-08 02:38 | 40.97342 | 143.81566 | 46401 ft | 494 kts | 261° |
| 2026-05-08 02:38 | 40.96735 | 143.72492 | 46401 ft | 494 kts | 261° |
| 2026-05-08 02:39 | 40.96123 | 143.63429 | 46399 ft | 494 kts | 261° |
| 2026-05-08 02:39 | 40.95512 | 143.54416 | 46399 ft | 494 kts | 261° |
| 2026-05-08 02:40 | 40.94893 | 143.45351 | 46399 ft | 494 kts | 261° |
| 2026-05-08 02:40 | 40.94271 | 143.36283 | 46393 ft | 494 kts | 261° |
| 2026-05-08 02:41 | 40.93648 | 143.27259 | 46399 ft | 495 kts | 261° |
| 2026-05-08 02:41 | 40.93018 | 143.18194 | 46396 ft | 495 kts | 261° |
| 2026-05-08 02:42 | 40.92386 | 143.09156 | 46398 ft | 495 kts | 261° |
| 2026-05-08 02:42 | 40.91745 | 143.00069 | 46393 ft | 495 kts | 261° |
| 2026-05-08 02:43 | 40.91102 | 142.91031 | 46387 ft | 489 kts | 261° |
| 2026-05-08 02:43 | 40.90796 | 142.86666 | 45810 ft | 467 kts | 261° |
| 2026-05-08 02:43 | 40.91042 | 142.83073 | 38299 ft | 419 kts | 276° |
| 2026-05-08 02:44 | 40.91622 | 142.78778 | 30124 ft | 517 kts | 272° |
| 2026-05-08 02:44 | 40.92377 | 142.73822 | 27088 ft | 533 kts | 274° |
| 2026-05-08 02:44 | 40.92460 | 142.69400 | 28084 ft | 434 kts | 250° |
| 2026-05-08 02:44 | 40.91352 | 142.66030 | 28450 ft | 379 kts | 241° |
| 2026-05-08 02:45 | 40.89995 | 142.62427 | 26762 ft | 538 kts | 242° |
| 2026-05-08 02:45 | 40.88034 | 142.57190 | 23892 ft | 715 kts | 243° |
| 2026-05-08 02:45 | 40.86132 | 142.51588 | 21600 ft | 612 kts | 246° |
| 2026-05-08 02:45 | 40.84535 | 142.47033 | 21336 ft | 492 kts | 225° |
| 2026-05-08 02:46 | 40.83552 | 142.43615 | 19840 ft | 382 kts | 247° |
| 2026-05-08 02:46 | 40.82551 | 142.40466 | 19045 ft | 361 kts | 241° |
| 2026-05-08 02:46 | 40.81366 | 142.37660 | 18207 ft | 346 kts | 236° |
| 2026-05-08 02:46 | 40.80036 | 142.35065 | 17203 ft | 336 kts | 233° |
| 2026-05-08 02:47 | 40.78616 | 142.32649 | 16171 ft | 329 kts | 230° |
| 2026-05-08 02:47 | 40.77157 | 142.30389 | 15182 ft | 325 kts | 229° |
| 2026-05-08 02:47 | 40.75641 | 142.28186 | 14202 ft | 323 kts | 228° |
| 2026-05-08 02:47 | 40.74098 | 142.26039 | 13202 ft | 322 kts | 227° |
| 2026-05-08 02:48 | 40.72538 | 142.23928 | 12152 ft | 321 kts | 226° |
| 2026-05-08 02:48 | 40.70966 | 142.21839 | 11137 ft | 320 kts | 226° |
| 2026-05-08 02:48 | 40.69388 | 142.19769 | 10154 ft | 319 kts | 226° |
| 2026-05-08 02:48 | 40.67811 | 142.17714 | 9131 ft | 319 kts | 226° |
| 2026-05-08 02:49 | 40.66241 | 142.15681 | 8103 ft | 319 kts | 225° |
| 2026-05-08 02:49 | 40.64648 | 142.13630 | 7088 ft | 319 kts | 225° |
| 2026-05-08 02:49 | 40.63984 | 142.11094 | 6613 ft | 295 kts | 270° |
| 2026-05-08 02:49 | 40.64134 | 142.08558 | 6729 ft | 262 kts | 271° |
| 2026-05-08 02:50 | 40.64228 | 142.06253 | 6550 ft | 242 kts | 270° |
| 2026-05-08 02:50 | 40.64277 | 142.04111 | 6281 ft | 226 kts | 269° |
| 2026-05-08 02:50 | 40.64308 | 142.02105 | 5939 ft | 212 kts | 268° |
| 2026-05-08 02:50 | 40.64326 | 142.00226 | 5539 ft | 200 kts | 268° |
| 2026-05-08 02:51 | 40.64428 | 141.98497 | 5273 ft | 179 kts | 275° |
| 2026-05-08 02:51 | 40.64653 | 141.96962 | 4871 ft | 162 kts | 279° |
| 2026-05-08 02:51 | 40.64932 | 141.95587 | 4307 ft | 153 kts | 281° |
| 2026-05-08 02:51 | 40.65246 | 141.94272 | 3618 ft | 148 kts | 283° |
| 2026-05-08 02:52 | 40.65581 | 141.93003 | 2907 ft | 145 kts | 284° |
| 2026-05-08 02:52 | 40.65933 | 141.91760 | 2176 ft | 145 kts | 288° |
| 2026-05-08 02:52 | 40.66301 | 141.90544 | 1491 ft | 144 kts | 290° |
| 2026-05-08 02:52 | 40.66698 | 141.89330 | 768 ft | 144 kts | 294° |
| 2026-05-08 02:53 | 40.67056 | 141.88108 | 97 ft | 148 kts | 279° |